createdAt,value
2019-03-28T00:00:05.106Z,8.108215
2019-03-28T00:00:16.955Z,8.098145
2019-03-28T00:00:28.830Z,8.098145
2019-03-28T00:00:40.594Z,8.067932
2019-03-28T00:00:52.375Z,8.078003
2019-03-28T00:01:04.174Z,8.067932
2019-03-28T00:01:15.964Z,8.078003
2019-03-28T00:01:27.740Z,8.067932
2019-03-28T00:01:39.509Z,8.03772
2019-03-28T00:01:51.300Z,8.03772
2019-03-28T00:02:03.044Z,8.03772
2019-03-28T00:02:14.839Z,8.067932
2019-03-28T00:02:26.659Z,8.03772
2019-03-28T00:02:38.440Z,8.027649
2019-03-28T00:02:50.224Z,8.027649
2019-03-28T00:03:02.149Z,8.03772
2019-03-28T00:03:13.812Z,8.027649
2019-03-28T00:03:25.600Z,8.027649
2019-03-28T00:03:37.428Z,8.03772
2019-03-28T00:03:49.229Z,8.027649
2019-03-28T00:04:00.991Z,8.03772
2019-03-28T00:04:12.764Z,8.03772
2019-03-28T00:04:24.529Z,8.03772
2019-03-28T00:04:36.304Z,8.03772
2019-03-28T00:04:48.115Z,8.027649
2019-03-28T00:04:59.906Z,8.027649
2019-03-28T00:05:11.732Z,8.03772
2019-03-28T00:05:23.542Z,8.03772
2019-03-28T00:05:35.316Z,8.027649
2019-03-28T00:05:47.102Z,8.027649
2019-03-28T00:05:58.884Z,8.027649
2019-03-28T00:06:10.668Z,8.03772
2019-03-28T00:06:23.111Z,8.027649
2019-03-28T00:06:34.236Z,8.03772
2019-03-28T00:06:46.004Z,8.067932
2019-03-28T00:06:57.764Z,8.067932
2019-03-28T00:07:10.535Z,8.03772
2019-03-28T00:07:24.280Z,8.03772
2019-03-28T00:07:35.153Z,8.03772
2019-03-28T00:07:46.923Z,8.03772
2019-03-28T00:07:58.670Z,8.067932
2019-03-28T00:08:12.581Z,8.067932
2019-03-28T00:08:23.255Z,8.03772
2019-03-28T00:08:35.036Z,8.078003
2019-03-28T00:08:46.809Z,8.078003
2019-03-28T00:08:58.630Z,8.078003
2019-03-28T00:09:10.434Z,8.067932
2019-03-28T00:09:22.211Z,8.098145
2019-03-28T00:09:34.018Z,8.098145
2019-03-28T00:09:45.807Z,8.098145
2019-03-28T00:09:57.625Z,8.108215
2019-03-28T00:10:09.969Z,8.108215
2019-03-28T00:10:21.145Z,8.108215
2019-03-28T00:10:32.980Z,8.098145
2019-03-28T00:10:44.835Z,8.098145
2019-03-28T00:10:56.518Z,8.098145
2019-03-28T00:11:08.363Z,8.098145
2019-03-28T00:11:20.156Z,8.098145
2019-03-28T00:11:31.941Z,8.108215
2019-03-28T00:11:43.727Z,8.098145
2019-03-28T00:11:56.563Z,8.098145
2019-03-28T00:12:08.344Z,8.098145
2019-03-28T00:12:20.118Z,8.078003
2019-03-28T00:12:31.883Z,8.098145
2019-03-28T00:12:43.660Z,8.098145
2019-03-28T00:12:55.433Z,8.078003
2019-03-28T00:13:07.271Z,8.078003
2019-03-28T00:13:19.049Z,8.078003
2019-03-28T00:13:30.800Z,8.067932
2019-03-28T00:13:42.599Z,8.067932
2019-03-28T00:13:55.157Z,8.098145
2019-03-28T00:14:06.195Z,8.078003
2019-03-28T00:14:17.991Z,8.098145
2019-03-28T00:14:29.746Z,8.098145
2019-03-28T00:14:41.531Z,8.078003
2019-03-28T00:14:53.324Z,8.098145
2019-03-28T00:15:05.065Z,8.098145
2019-03-28T00:15:16.884Z,8.108215
2019-03-28T00:15:28.661Z,8.108215
2019-03-28T00:15:40.459Z,8.108215
2019-03-28T00:15:52.270Z,8.108215
2019-03-28T00:16:04.035Z,8.108215
2019-03-28T00:16:15.797Z,8.118286
2019-03-28T00:16:27.572Z,8.118286
2019-03-28T00:16:39.523Z,8.108215
2019-03-28T00:16:51.302Z,8.118286
2019-03-28T00:17:03.093Z,8.138428
2019-03-28T00:17:14.879Z,8.138428
2019-03-28T00:17:26.639Z,8.148499
2019-03-28T00:17:38.453Z,8.138428
2019-03-28T00:17:50.228Z,8.148499
2019-03-28T00:18:02.377Z,8.138428
2019-03-28T00:18:13.823Z,8.148499
2019-03-28T00:18:25.592Z,8.16864
2019-03-28T00:18:37.409Z,8.148499
2019-03-28T00:18:49.181Z,8.16864
2019-03-28T00:19:00.945Z,8.16864
2019-03-28T00:19:12.735Z,8.16864
2019-03-28T00:19:24.536Z,8.16864
2019-03-28T00:19:36.311Z,8.16864
2019-03-28T00:19:48.113Z,8.16864
2019-03-28T00:19:59.887Z,8.148499
2019-03-28T00:20:11.635Z,8.16864
2019-03-28T00:20:23.445Z,8.148499
2019-03-28T00:20:35.407Z,8.148499
2019-03-28T00:20:47.033Z,8.16864
2019-03-28T00:20:58.822Z,8.148499
2019-03-28T00:21:10.592Z,8.16864
2019-03-28T00:21:22.401Z,8.148499
2019-03-28T00:21:34.171Z,8.148499
2019-03-28T00:21:46.001Z,8.148499
2019-03-28T00:21:58.802Z,8.148499
2019-03-28T00:22:10.547Z,8.148499
2019-03-28T00:22:22.374Z,8.148499
2019-03-28T00:22:34.168Z,8.16864
2019-03-28T00:22:45.969Z,8.148499
2019-03-28T00:22:57.764Z,8.148499
2019-03-28T00:23:09.552Z,8.16864
2019-03-28T00:23:21.349Z,8.148499
2019-03-28T00:23:33.143Z,8.148499
2019-03-28T00:23:44.936Z,8.148499
2019-03-28T00:23:57.228Z,8.138428
2019-03-28T00:24:09.471Z,8.148499
2019-03-28T00:24:21.271Z,8.138428
2019-03-28T00:24:33.056Z,8.138428
2019-03-28T00:24:44.908Z,8.148499
2019-03-28T00:24:56.694Z,8.118286
2019-03-28T00:25:08.450Z,8.148499
2019-03-28T00:25:20.233Z,8.138428
2019-03-28T00:25:32.993Z,8.138428
2019-03-28T00:25:44.770Z,8.108215
2019-03-28T00:25:57.595Z,8.108215
2019-03-28T00:26:09.366Z,8.108215
2019-03-28T00:26:29.787Z,8.108215
2019-03-28T00:26:33.886Z,8.098145
2019-03-28T00:26:45.729Z,8.108215
2019-03-28T00:26:57.515Z,8.098145
2019-03-28T00:27:18.023Z,8.078003
2019-03-28T00:27:29.790Z,8.098145
2019-03-28T00:27:41.579Z,8.098145
2019-03-28T00:27:53.364Z,8.098145
2019-03-28T00:28:05.133Z,8.078003
2019-03-28T00:28:16.967Z,8.098145
2019-03-28T00:28:28.736Z,8.078003
2019-03-28T00:28:40.529Z,8.067932
2019-03-28T00:28:52.306Z,8.067932
2019-03-28T00:29:04.062Z,8.067932
2019-03-28T00:29:15.858Z,8.078003
2019-03-28T00:29:28.263Z,8.03772
2019-03-28T00:29:39.405Z,8.067932
2019-03-28T00:29:51.247Z,8.03772
2019-03-28T00:30:03.063Z,8.067932
2019-03-28T00:30:14.825Z,8.067932
2019-03-28T00:30:26.641Z,8.067932
2019-03-28T00:30:38.405Z,8.03772
2019-03-28T00:30:50.205Z,8.03772
2019-03-28T00:31:02.017Z,8.027649
2019-03-28T00:31:13.779Z,8.027649
2019-03-28T00:31:25.618Z,8.027649
2019-03-28T00:31:37.378Z,8.03772
2019-03-28T00:31:49.222Z,8.027649
2019-03-28T00:32:01.021Z,8.03772
2019-03-28T00:32:12.820Z,8.03772
2019-03-28T00:32:24.604Z,8.03772
2019-03-28T00:32:36.454Z,8.03772
2019-03-28T00:32:48.278Z,8.03772
2019-03-28T00:33:00.079Z,8.03772
2019-03-28T00:33:11.853Z,8.03772
2019-03-28T00:33:23.653Z,8.027649
2019-03-28T00:33:35.432Z,8.03772
2019-03-28T00:33:47.248Z,8.03772
2019-03-28T00:33:59.032Z,8.027649
2019-03-28T00:34:10.827Z,8.027649
2019-03-28T00:34:22.618Z,8.027649
2019-03-28T00:34:35.169Z,8.027649
2019-03-28T00:34:46.163Z,8.027649
2019-03-28T00:34:57.915Z,8.03772
2019-03-28T00:35:09.714Z,8.027649
2019-03-28T00:35:21.485Z,8.03772
2019-03-28T00:35:33.268Z,8.03772
2019-03-28T00:35:45.017Z,8.03772
2019-03-28T00:35:56.766Z,8.03772
2019-03-28T00:36:08.529Z,8.027649
2019-03-28T00:36:20.351Z,8.027649
2019-03-28T00:36:32.121Z,8.03772
2019-03-28T00:36:43.894Z,8.027649
2019-03-28T00:36:55.655Z,8.03772
2019-03-28T00:37:08.994Z,8.027649
2019-03-28T00:37:20.195Z,8.027649
2019-03-28T00:37:32.046Z,8.03772
2019-03-28T00:37:43.815Z,8.067932
2019-03-28T00:37:55.586Z,8.03772
2019-03-28T00:38:07.348Z,8.078003
2019-03-28T00:38:19.196Z,8.067932
2019-03-28T00:38:31.000Z,8.03772
2019-03-28T00:38:42.777Z,8.03772
2019-03-28T00:38:54.541Z,8.067932
2019-03-28T00:39:06.334Z,8.03772
2019-03-28T00:39:18.135Z,8.067932
2019-03-28T00:39:29.914Z,8.067932
2019-03-28T00:39:41.661Z,8.03772
2019-03-28T00:39:53.455Z,8.067932
2019-03-28T00:40:05.291Z,8.03772
2019-03-28T00:40:17.041Z,8.067932
2019-03-28T00:40:28.808Z,8.03772
2019-03-28T00:40:40.574Z,8.067932
2019-03-28T00:40:52.347Z,8.067932
2019-03-28T00:41:04.142Z,8.03772
2019-03-28T00:41:15.904Z,8.03772
2019-03-28T00:41:27.682Z,8.03772
2019-03-28T00:41:39.489Z,8.03772
2019-03-28T00:41:51.254Z,8.03772
2019-03-28T00:42:03.093Z,8.03772
2019-03-28T00:42:14.912Z,8.03772
2019-03-28T00:42:26.716Z,8.027649
2019-03-28T00:42:38.567Z,8.03772
2019-03-28T00:42:50.392Z,8.027649
2019-03-28T00:43:02.159Z,8.027649
2019-03-28T00:43:13.928Z,8.027649
2019-03-28T00:43:25.734Z,8.027649
2019-03-28T00:43:37.535Z,8.03772
2019-03-28T00:43:49.352Z,8.027649
2019-03-28T00:44:01.899Z,8.027649
2019-03-28T00:44:13.812Z,8.027649
2019-03-28T00:44:25.578Z,8.03772
2019-03-28T00:44:37.364Z,8.03772
2019-03-28T00:44:49.151Z,8.067932
2019-03-28T00:45:00.984Z,8.067932
2019-03-28T00:45:12.773Z,8.067932
2019-03-28T00:45:24.558Z,8.03772
2019-03-28T00:45:36.565Z,8.067932
2019-03-28T00:45:48.342Z,8.067932
2019-03-28T00:46:00.144Z,8.067932
2019-03-28T00:46:11.943Z,8.03772
2019-03-28T00:46:23.718Z,8.03772
2019-03-28T00:46:35.524Z,8.078003
2019-03-28T00:46:47.407Z,8.067932
2019-03-28T00:46:59.100Z,8.067932
2019-03-28T00:47:11.123Z,8.078003
2019-03-28T00:47:22.808Z,8.078003
2019-03-28T00:47:34.586Z,8.078003
2019-03-28T00:47:46.358Z,8.078003
2019-03-28T00:47:58.160Z,8.078003
2019-03-28T00:48:09.973Z,8.078003
2019-03-28T00:48:21.754Z,8.078003
2019-03-28T00:48:33.518Z,8.098145
2019-03-28T00:48:45.312Z,8.098145
2019-03-28T00:48:57.113Z,8.098145
2019-03-28T00:49:08.896Z,8.098145
2019-03-28T00:49:20.709Z,8.098145
2019-03-28T00:49:32.474Z,8.098145
2019-03-28T00:49:44.231Z,8.078003
2019-03-28T00:49:56.006Z,8.078003
2019-03-28T00:50:08.179Z,8.098145
2019-03-28T00:50:19.557Z,8.098145
2019-03-28T00:50:33.126Z,8.078003
2019-03-28T00:50:44.119Z,8.098145
2019-03-28T00:50:55.926Z,8.098145
2019-03-28T00:51:07.706Z,8.078003
2019-03-28T00:51:19.496Z,8.098145
2019-03-28T00:51:31.271Z,8.078003
2019-03-28T00:51:44.030Z,8.098145
2019-03-28T00:51:55.802Z,8.078003
2019-03-28T00:52:07.616Z,8.067932
2019-03-28T00:52:19.383Z,8.067932
2019-03-28T00:52:31.182Z,8.067932
2019-03-28T00:52:42.968Z,8.03772
2019-03-28T00:52:54.739Z,8.03772
2019-03-28T00:53:06.550Z,8.03772
2019-03-28T00:53:18.302Z,8.03772
2019-03-28T00:53:30.078Z,8.03772
2019-03-28T00:53:41.854Z,8.03772
2019-03-28T00:53:53.646Z,8.027649
2019-03-28T00:54:05.463Z,8.027649
2019-03-28T00:54:17.263Z,8.03772
2019-03-28T00:54:29.064Z,8.027649
2019-03-28T00:54:40.851Z,8.027649
2019-03-28T00:54:52.702Z,8.027649
2019-03-28T00:55:04.487Z,8.03772
2019-03-28T00:55:16.275Z,8.027649
2019-03-28T00:55:28.049Z,8.027649
2019-03-28T00:55:39.843Z,8.027649
2019-03-28T00:55:52.013Z,8.027649
2019-03-28T00:56:03.797Z,8.027649
2019-03-28T00:56:15.578Z,8.027649
2019-03-28T00:56:27.425Z,8.03772
2019-03-28T00:56:46.711Z,8.027649
2019-03-28T00:56:51.807Z,8.027649
2019-03-28T00:57:03.638Z,8.027649
2019-03-28T00:57:15.477Z,8.027649
2019-03-28T00:57:27.283Z,8.027649
2019-03-28T00:57:39.068Z,8.03772
2019-03-28T00:57:50.857Z,8.03772
2019-03-28T00:58:02.660Z,8.03772
2019-03-28T00:58:14.409Z,8.027649
2019-03-28T00:58:26.190Z,8.027649
2019-03-28T00:58:37.955Z,8.027649
2019-03-28T00:58:49.762Z,8.027649
2019-03-28T00:59:01.563Z,8.017578
2019-03-28T00:59:13.330Z,8.027649
2019-03-28T00:59:25.137Z,8.027649
2019-03-28T00:59:36.909Z,8.017578
2019-03-28T00:59:49.230Z,8.027649
2019-03-28T01:00:00.556Z,8.017578
2019-03-28T01:00:12.282Z,8.017578
2019-03-28T01:00:24.048Z,8.027649
2019-03-28T01:00:35.858Z,8.017578
2019-03-28T01:00:47.628Z,8.017578
2019-03-28T01:00:59.417Z,8.027649
2019-03-28T01:01:11.217Z,8.027649
2019-03-28T01:01:23.017Z,8.027649
2019-03-28T01:01:34.821Z,8.017578
2019-03-28T01:01:46.583Z,8.017578
2019-03-28T01:01:58.346Z,8.027649
2019-03-28T01:02:10.161Z,8.027649
2019-03-28T01:02:21.913Z,8.027649
2019-03-28T01:02:33.700Z,8.027649
2019-03-28T01:02:46.046Z,8.03772
2019-03-28T01:02:57.300Z,8.027649
2019-03-28T01:03:09.172Z,8.03772
2019-03-28T01:03:20.880Z,8.027649
2019-03-28T01:03:32.664Z,8.017578
2019-03-28T01:03:44.421Z,8.017578
2019-03-28T01:03:56.183Z,8.027649
2019-03-28T01:04:07.967Z,8.03772
2019-03-28T01:04:19.741Z,8.027649
2019-03-28T01:04:31.519Z,8.027649
2019-03-28T01:04:43.289Z,8.027649
2019-03-28T01:04:55.111Z,8.027649
2019-03-28T01:05:06.872Z,8.027649
2019-03-28T01:05:18.637Z,8.017578
2019-03-28T01:05:30.420Z,8.027649
2019-03-28T01:05:42.274Z,8.027649
2019-03-28T01:05:53.992Z,8.017578
2019-03-28T01:06:05.809Z,8.027649
2019-03-28T01:06:17.622Z,8.017578
2019-03-28T01:06:29.374Z,8.017578
2019-03-28T01:06:41.163Z,7.997437
2019-03-28T01:06:52.947Z,8.017578
2019-03-28T01:07:04.730Z,8.017578
2019-03-28T01:07:16.544Z,7.997437
2019-03-28T01:07:28.293Z,8.017578
2019-03-28T01:07:40.070Z,8.017578
2019-03-28T01:07:51.871Z,8.017578
2019-03-28T01:08:03.662Z,8.017578
2019-03-28T01:08:15.506Z,8.027649
2019-03-28T01:08:27.310Z,8.017578
2019-03-28T01:08:39.100Z,8.027649
2019-03-28T01:08:50.890Z,8.027649
2019-03-28T01:09:04.237Z,8.017578
2019-03-28T01:09:15.687Z,8.027649
2019-03-28T01:09:27.508Z,8.027649
2019-03-28T01:09:39.352Z,8.027649
2019-03-28T01:09:51.226Z,8.027649
2019-03-28T01:10:03.150Z,8.027649
2019-03-28T01:10:14.993Z,8.027649
2019-03-28T01:10:26.845Z,8.03772
2019-03-28T01:10:38.722Z,8.03772
2019-03-28T01:10:50.550Z,8.027649
2019-03-28T01:11:02.393Z,8.027649
2019-03-28T01:11:14.262Z,8.03772
2019-03-28T01:11:26.758Z,8.067932
2019-03-28T01:11:38.609Z,8.03772
2019-03-28T01:11:50.419Z,8.067932
2019-03-28T01:12:02.396Z,8.067932
2019-03-28T01:12:14.051Z,8.027649
2019-03-28T01:12:25.870Z,8.03772
2019-03-28T01:12:37.760Z,8.03772
2019-03-28T01:12:49.602Z,8.027649
2019-03-28T01:13:01.457Z,8.027649
2019-03-28T01:13:13.250Z,8.027649
2019-03-28T01:13:25.076Z,8.03772
2019-03-28T01:13:36.849Z,8.067932
2019-03-28T01:13:48.755Z,8.03772
2019-03-28T01:14:00.686Z,8.03772
2019-03-28T01:14:12.484Z,8.03772
2019-03-28T01:14:24.282Z,8.03772
2019-03-28T01:14:36.104Z,8.017578
2019-03-28T01:14:47.930Z,8.03772
2019-03-28T01:14:59.799Z,8.027649
2019-03-28T01:15:11.632Z,8.027649
2019-03-28T01:15:23.504Z,8.027649
2019-03-28T01:15:35.391Z,8.03772
2019-03-28T01:15:47.221Z,8.03772
2019-03-28T01:15:59.010Z,8.027649
2019-03-28T01:16:10.849Z,8.03772
2019-03-28T01:16:22.670Z,8.027649
2019-03-28T01:16:34.579Z,8.027649
2019-03-28T01:16:46.456Z,8.017578
2019-03-28T01:16:58.293Z,8.027649
2019-03-28T01:17:10.163Z,8.017578
2019-03-28T01:17:22.056Z,8.017578
2019-03-28T01:17:33.860Z,8.017578
2019-03-28T01:17:45.659Z,8.017578
2019-03-28T01:17:57.511Z,7.997437
2019-03-28T01:18:09.286Z,7.997437
2019-03-28T01:18:21.112Z,7.997437
2019-03-28T01:18:32.977Z,7.987366
2019-03-28T01:18:45.176Z,7.997437
2019-03-28T01:18:56.765Z,7.997437
2019-03-28T01:19:08.774Z,7.987366
2019-03-28T01:19:20.581Z,7.987366
2019-03-28T01:19:32.384Z,7.987366
2019-03-28T01:19:44.192Z,7.987366
2019-03-28T01:19:56.094Z,7.987366
2019-03-28T01:20:08.082Z,7.987366
2019-03-28T01:20:19.870Z,7.987366
2019-03-28T01:20:31.744Z,7.987366
2019-03-28T01:20:43.566Z,7.997437
2019-03-28T01:20:55.339Z,7.987366
2019-03-28T01:21:07.286Z,7.987366
2019-03-28T01:21:19.108Z,7.987366
2019-03-28T01:21:30.940Z,7.987366
2019-03-28T01:21:42.739Z,7.967224
2019-03-28T01:21:54.610Z,7.987366
2019-03-28T01:22:06.440Z,7.987366
2019-03-28T01:22:18.204Z,7.987366
2019-03-28T01:22:30.029Z,7.967224
2019-03-28T01:22:41.805Z,7.987366
2019-03-28T01:22:53.597Z,7.967224
2019-03-28T01:23:05.398Z,7.967224
2019-03-28T01:23:17.174Z,7.957153
2019-03-28T01:23:28.972Z,7.957153
2019-03-28T01:23:40.766Z,7.967224
2019-03-28T01:23:52.518Z,7.997437
2019-03-28T01:24:04.291Z,7.957153
2019-03-28T01:24:16.061Z,7.967224
2019-03-28T01:24:27.849Z,7.987366
2019-03-28T01:24:39.666Z,7.987366
2019-03-28T01:24:51.562Z,7.967224
2019-03-28T01:25:03.342Z,7.987366
2019-03-28T01:25:15.198Z,7.987366
2019-03-28T01:25:27.453Z,7.987366
2019-03-28T01:25:38.734Z,7.997437
2019-03-28T01:25:50.510Z,7.987366
2019-03-28T01:26:02.298Z,7.997437
2019-03-28T01:26:14.091Z,7.997437
2019-03-28T01:26:25.884Z,7.997437
2019-03-28T01:26:38.342Z,7.987366
2019-03-28T01:26:56.948Z,7.967224
2019-03-28T01:27:03.166Z,7.997437
2019-03-28T01:27:15.464Z,7.997437
2019-03-28T01:27:27.730Z,7.997437
2019-03-28T01:27:39.780Z,7.997437
2019-03-28T01:27:51.580Z,7.997437
2019-03-28T01:28:03.353Z,8.017578
2019-03-28T01:28:15.175Z,7.997437
2019-03-28T01:28:27.029Z,7.987366
2019-03-28T01:28:38.905Z,8.017578
2019-03-28T01:28:50.696Z,7.997437
2019-03-28T01:29:02.493Z,7.997437
2019-03-28T01:29:15.134Z,7.997437
2019-03-28T01:29:26.994Z,7.997437
2019-03-28T01:29:38.800Z,7.997437
2019-03-28T01:29:50.987Z,7.987366
2019-03-28T01:30:03.741Z,7.967224
2019-03-28T01:30:15.487Z,7.967224
2019-03-28T01:30:27.465Z,7.967224
2019-03-28T01:30:40.464Z,7.967224
2019-03-28T01:30:52.989Z,7.987366
2019-03-28T01:31:06.774Z,7.957153
2019-03-28T01:31:19.588Z,7.967224
2019-03-28T01:31:31.941Z,7.967224
2019-03-28T01:31:44.326Z,7.967224
2019-03-28T01:31:56.613Z,7.967224
2019-03-28T01:32:09.324Z,7.967224
2019-03-28T01:32:21.626Z,7.957153
2019-03-28T01:32:33.690Z,7.957153
2019-03-28T01:32:45.800Z,7.967224
2019-03-28T01:32:57.804Z,7.967224
2019-03-28T01:33:09.816Z,7.987366
2019-03-28T01:33:21.702Z,7.967224
2019-03-28T01:33:33.599Z,7.967224
2019-03-28T01:33:45.505Z,7.987366
2019-03-28T01:33:57.399Z,7.957153
2019-03-28T01:34:09.307Z,7.987366
2019-03-28T01:34:21.212Z,7.967224
2019-03-28T01:34:33.213Z,7.967224
2019-03-28T01:34:44.910Z,7.967224
2019-03-28T01:34:56.792Z,7.967224
2019-03-28T01:35:08.646Z,7.967224
2019-03-28T01:35:20.511Z,7.967224
2019-03-28T01:35:32.643Z,7.967224
2019-03-28T01:35:44.530Z,7.967224
2019-03-28T01:35:56.478Z,7.967224
2019-03-28T01:36:08.366Z,7.967224
2019-03-28T01:36:20.263Z,7.967224
2019-03-28T01:36:32.155Z,7.967224
2019-03-28T01:36:44.097Z,7.967224
2019-03-28T01:36:55.908Z,7.967224
2019-03-28T01:37:07.765Z,7.937012
2019-03-28T01:37:19.653Z,7.967224
2019-03-28T01:37:31.540Z,7.957153
2019-03-28T01:37:43.807Z,7.937012
2019-03-28T01:37:55.984Z,7.937012
2019-03-28T01:38:08.411Z,7.937012
2019-03-28T01:38:20.725Z,7.937012
2019-03-28T01:38:34.520Z,7.926941
2019-03-28T01:38:46.782Z,7.937012
2019-03-28T01:38:58.698Z,7.926941
2019-03-28T01:39:10.631Z,7.91687
2019-03-28T01:39:22.481Z,7.896729
2019-03-28T01:39:33.619Z,7.91687
2019-03-28T01:39:45.826Z,7.91687
2019-03-28T01:39:58.164Z,7.896729
2019-03-28T01:40:10.308Z,7.886658
2019-03-28T01:40:23.502Z,7.896729
2019-03-28T01:40:35.637Z,7.886658
2019-03-28T01:40:47.574Z,7.886658
2019-03-28T01:40:59.431Z,7.886658
2019-03-28T01:41:11.451Z,7.886658
2019-03-28T01:41:23.689Z,7.886658
2019-03-28T01:41:36.750Z,7.866516
2019-03-28T01:41:49.160Z,7.866516
2019-03-28T01:42:01.728Z,7.886658
2019-03-28T01:42:14.015Z,7.866516
2019-03-28T01:42:26.009Z,7.866516
2019-03-28T01:42:37.925Z,7.886658
2019-03-28T01:42:50.520Z,7.886658
2019-03-28T01:43:02.465Z,7.886658
2019-03-28T01:43:14.405Z,7.866516
2019-03-28T01:43:27.185Z,7.896729
2019-03-28T01:43:38.221Z,7.866516
2019-03-28T01:43:50.056Z,7.866516
2019-03-28T01:44:01.944Z,7.886658
2019-03-28T01:44:13.869Z,7.866516
2019-03-28T01:44:25.770Z,7.866516
2019-03-28T01:44:38.088Z,7.846375
2019-03-28T01:44:50.688Z,7.866516
2019-03-28T01:45:02.962Z,7.866516
2019-03-28T01:45:14.920Z,7.866516
2019-03-28T01:45:27.136Z,7.866516
2019-03-28T01:45:38.986Z,7.866516
2019-03-28T01:45:50.867Z,7.846375
2019-03-28T01:46:02.701Z,7.866516
2019-03-28T01:46:14.569Z,7.866516
2019-03-28T01:46:26.475Z,7.866516
2019-03-28T01:46:38.380Z,7.866516
2019-03-28T01:46:50.346Z,7.846375
2019-03-28T01:47:02.231Z,7.846375
2019-03-28T01:47:14.125Z,7.836304
2019-03-28T01:47:25.937Z,7.816162
2019-03-28T01:47:37.967Z,7.846375
2019-03-28T01:47:49.858Z,7.836304
2019-03-28T01:48:01.732Z,7.836304
2019-03-28T01:48:13.613Z,7.816162
2019-03-28T01:48:25.665Z,7.816162
2019-03-28T01:48:37.934Z,7.816162
2019-03-28T01:48:50.099Z,7.816162
2019-03-28T01:49:03.744Z,7.816162
2019-03-28T01:49:14.862Z,7.816162
2019-03-28T01:49:26.742Z,7.816162
2019-03-28T01:49:38.602Z,7.836304
2019-03-28T01:49:50.465Z,7.816162
2019-03-28T01:50:02.371Z,7.836304
2019-03-28T01:50:14.213Z,7.816162
2019-03-28T01:50:26.069Z,7.836304
2019-03-28T01:50:37.949Z,7.836304
2019-03-28T01:50:49.815Z,7.836304
2019-03-28T01:51:01.701Z,7.836304
2019-03-28T01:51:13.642Z,7.816162
2019-03-28T01:51:25.467Z,7.806091
2019-03-28T01:51:37.301Z,7.816162
2019-03-28T01:51:49.148Z,7.816162
2019-03-28T01:52:04.239Z,7.816162
2019-03-28T01:52:13.857Z,7.806091
2019-03-28T01:52:25.689Z,7.816162
2019-03-28T01:52:37.539Z,7.806091
2019-03-28T01:52:49.377Z,7.806091
2019-03-28T01:53:01.174Z,7.806091
2019-03-28T01:53:13.032Z,7.78595
2019-03-28T01:53:24.884Z,7.806091
2019-03-28T01:53:36.716Z,7.78595
2019-03-28T01:53:48.571Z,7.806091
2019-03-28T01:54:00.407Z,7.78595
2019-03-28T01:54:12.331Z,7.775879
2019-03-28T01:54:24.197Z,7.775879
2019-03-28T01:54:37.052Z,7.765808
2019-03-28T01:54:48.883Z,7.765808
2019-03-28T01:55:00.769Z,7.765808
2019-03-28T01:55:12.605Z,7.735596
2019-03-28T01:55:24.443Z,7.735596
2019-03-28T01:55:36.284Z,7.735596
2019-03-28T01:55:48.155Z,7.745667
2019-03-28T01:56:00.011Z,7.715454
2019-03-28T01:56:11.858Z,7.735596
2019-03-28T01:56:25.120Z,7.715454
2019-03-28T01:56:36.530Z,7.715454
2019-03-28T01:56:48.309Z,7.735596
2019-03-28T01:57:10.618Z,7.715454
2019-03-28T01:57:13.933Z,7.715454
2019-03-28T01:57:25.824Z,7.715454
2019-03-28T01:57:37.690Z,7.705383
2019-03-28T01:57:49.523Z,7.705383
2019-03-28T01:58:01.332Z,7.705383
2019-03-28T01:58:13.096Z,7.705383
2019-03-28T01:58:24.890Z,7.685242
2019-03-28T01:58:36.681Z,7.685242
2019-03-28T01:58:48.500Z,7.6651
2019-03-28T01:59:00.293Z,7.6651
2019-03-28T01:59:12.083Z,7.655029
2019-03-28T01:59:23.882Z,7.655029
2019-03-28T01:59:35.662Z,7.634888
2019-03-28T01:59:47.461Z,7.634888
2019-03-28T01:59:59.240Z,7.624817
2019-03-28T02:00:11.038Z,7.604675
2019-03-28T02:00:22.827Z,7.624817
2019-03-28T02:00:34.624Z,7.624817
2019-03-28T02:00:46.408Z,7.624817
2019-03-28T02:00:58.220Z,7.634888
2019-03-28T02:01:10.993Z,7.624817
2019-03-28T02:01:22.772Z,7.624817
2019-03-28T02:01:34.537Z,7.624817
2019-03-28T02:01:46.299Z,7.624817
2019-03-28T02:01:58.067Z,7.634888
2019-03-28T02:02:09.841Z,7.634888
2019-03-28T02:02:21.655Z,7.634888
2019-03-28T02:02:33.425Z,7.634888
2019-03-28T02:02:45.318Z,7.634888
2019-03-28T02:02:56.999Z,7.634888
2019-03-28T02:03:08.793Z,7.634888
2019-03-28T02:03:20.590Z,7.624817
2019-03-28T02:03:32.337Z,7.624817
2019-03-28T02:03:44.138Z,7.634888
2019-03-28T02:03:55.921Z,7.624817
2019-03-28T02:04:07.701Z,7.624817
2019-03-28T02:04:19.602Z,7.604675
2019-03-28T02:04:31.414Z,7.604675
2019-03-28T02:04:43.200Z,7.624817
2019-03-28T02:04:54.999Z,7.604675
2019-03-28T02:05:06.777Z,7.584534
2019-03-28T02:05:18.532Z,7.594604
2019-03-28T02:05:30.326Z,7.604675
2019-03-28T02:05:42.103Z,7.594604
2019-03-28T02:05:53.882Z,7.594604
2019-03-28T02:06:05.700Z,7.584534
2019-03-28T02:06:17.461Z,7.584534
2019-03-28T02:06:29.227Z,7.584534
2019-03-28T02:06:40.993Z,7.584534
2019-03-28T02:06:52.790Z,7.584534
2019-03-28T02:07:04.548Z,7.584534
2019-03-28T02:07:16.335Z,7.584534
2019-03-28T02:07:28.119Z,7.594604
2019-03-28T02:07:39.944Z,7.594604
2019-03-28T02:07:51.714Z,7.594604
2019-03-28T02:08:03.525Z,7.594604
2019-03-28T02:08:15.322Z,7.604675
2019-03-28T02:08:27.084Z,7.604675
2019-03-28T02:08:38.840Z,7.594604
2019-03-28T02:08:50.642Z,7.594604
2019-03-28T02:09:02.422Z,7.604675
2019-03-28T02:09:14.272Z,7.604675
2019-03-28T02:09:26.065Z,7.624817
2019-03-28T02:09:37.855Z,7.624817
2019-03-28T02:09:49.614Z,7.634888
2019-03-28T02:10:01.396Z,7.624817
2019-03-28T02:10:13.170Z,7.634888
2019-03-28T02:10:24.946Z,7.634888
2019-03-28T02:10:36.712Z,7.655029
2019-03-28T02:10:49.321Z,7.655029
2019-03-28T02:11:00.273Z,7.655029
2019-03-28T02:11:12.032Z,7.6651
2019-03-28T02:11:23.806Z,7.655029
2019-03-28T02:11:35.593Z,7.6651
2019-03-28T02:11:47.395Z,7.6651
2019-03-28T02:11:59.212Z,7.655029
2019-03-28T02:12:10.995Z,7.634888
2019-03-28T02:12:22.784Z,7.655029
2019-03-28T02:12:34.588Z,7.655029
2019-03-28T02:12:46.380Z,7.655029
2019-03-28T02:12:58.146Z,7.6651
2019-03-28T02:13:09.921Z,7.655029
2019-03-28T02:13:22.197Z,7.6651
2019-03-28T02:13:33.508Z,7.655029
2019-03-28T02:13:45.292Z,7.655029
2019-03-28T02:13:57.084Z,7.634888
2019-03-28T02:14:08.857Z,7.634888
2019-03-28T02:14:20.782Z,7.634888
2019-03-28T02:14:32.588Z,7.634888
2019-03-28T02:14:44.371Z,7.624817
2019-03-28T02:14:56.178Z,7.604675
2019-03-28T02:15:07.990Z,7.624817
2019-03-28T02:15:19.745Z,7.604675
2019-03-28T02:15:31.524Z,7.604675
2019-03-28T02:15:43.285Z,7.594604
2019-03-28T02:15:55.387Z,7.604675
2019-03-28T02:16:06.902Z,7.594604
2019-03-28T02:16:18.704Z,7.594604
2019-03-28T02:16:30.492Z,7.594604
2019-03-28T02:16:42.296Z,7.624817
2019-03-28T02:16:54.086Z,7.604675
2019-03-28T02:17:05.898Z,7.604675
2019-03-28T02:17:17.664Z,7.604675
2019-03-28T02:17:29.408Z,7.594604
2019-03-28T02:17:41.195Z,7.594604
2019-03-28T02:17:52.991Z,7.624817
2019-03-28T02:18:04.796Z,7.624817
2019-03-28T02:18:16.572Z,7.634888
2019-03-28T02:18:28.319Z,7.624817
2019-03-28T02:18:40.091Z,7.634888
2019-03-28T02:18:51.871Z,7.624817
2019-03-28T02:19:03.679Z,7.634888
2019-03-28T02:19:15.490Z,7.634888
2019-03-28T02:19:27.230Z,7.624817
2019-03-28T02:19:38.998Z,7.655029
2019-03-28T02:19:50.790Z,7.634888
2019-03-28T02:20:02.713Z,7.634888
2019-03-28T02:20:14.472Z,7.634888
2019-03-28T02:20:26.226Z,7.655029